Terminal Aerodrome Forecast
Issued by NWS

Home | Current Version | Previous Version | Text Only | Print | Product List | Glossary On
Versions: 1 2 3 4 5 6 7 8 9 10 11 12 13 14 15 16 17 18
000
FTUS45 KABQ 090540
TAFLVS
TAF
KLVS 090540Z 0906/1006 19013KT 6SM BR BKN009
      TEMPO 0906/0908 OVC003
     FM090900 19010KT P6SM FEW100
     FM091600 24013KT P6SM SCT100 SCT200
     FM100100 29008KT P6SM BKN200=

USA.gov is the U.S. government's official web portal to all federal, state and local government web resources and services.